Pagrindinis puslapis
METAR-TAF:

METAR-TAF

Oro uostai :

Gothenburg-Landvetter, Švedija

platuma: 57-40N, ilguma: 012-18E, Aukštis: 169 m

Dabartinis oras

Ataskaita buvo paskelbta 19 minutes, ne 21:50 UTC
Vėjas 4 kt iš Rytų/Šiaurės Rytų
Temperatūra -2°C
Drėgmė 93%
Slėgis 1030 hPa
Matomumas 10 km arba daugiau
Apsiniaukę ne aukštis 800 ft

METAR: ESGG 282150Z 07004KT 9999 OVC008 M02/M03 Q1030 R03/19//95

Laikas: 23:09 (22:09 UTC)

Prognozė

Ataskaita buvo paskelbta 4 valandos ir 34 minutes, ne 17:35 UTC
Prognozė galioja nuo 28 metu 18 UTC su 29 metu 18 UTC
Vėjas 4 kt iš Šiaurės Rytų
Matomumas 10 km arba daugiau
Apsiniaukę ne aukštis 300 ft
Tikimybė 40%
nuo 28 metu 18 UTC su 29 metu 18 UTC
Su prošvaistėmis ne aukštis 1500 ft
Tikimybė 40%
nuo 28 metu 18 UTC su 29 metu 09 UTC
Matomumas: 2000 m
rūkana

TAF: ESGG 281735Z 2818/2918 05004KT 9999 OVC003 PROB40 2818/2918 BKN015 PROB40 2818/2909 2000 BR

Orai ataskaitas ir orų prognozės (METAR, TAF).

turimą stotys yra geltonos ir raudonos taškus žemėlapyje.

Perkelti pele per norėdami pamatyti stoties vardą.

Tada spustelėkite, norėdami matyti oro stebėjimo ir prognozės.

Norėdami pakeisti žemėlapį: spustelėkite ant žalios mygtukų su juodo kryžiaus žemyn,; žalią mygtuką su brūkšneliu, jei norite nutolinti; arba žalių rodyklių gretimoms žemėlapius.


METAR-TAF: